createdAt,value
2019-05-19T00:00:21.779Z,57.83
2019-05-19T00:02:50.713Z,52.17
2019-05-19T00:05:19.395Z,48.05
2019-05-19T00:07:47.968Z,54.45
2019-05-19T00:10:16.645Z,54.67
2019-05-19T00:12:45.141Z,56.50
2019-05-19T00:15:13.647Z,53.87
2019-05-19T00:17:43.752Z,55.30
2019-05-19T00:20:12.494Z,56.00
2019-05-19T00:22:41.111Z,55.63
2019-05-19T00:25:09.829Z,47.23
2019-05-19T00:27:38.340Z,51.90
2019-05-19T00:30:08.631Z,45.70
2019-05-19T00:32:37.153Z,50.63
2019-05-19T00:35:06.818Z,51.02
2019-05-19T00:37:35.455Z,59.55
2019-05-19T00:40:06.495Z,60.55
2019-05-19T00:42:35.106Z,56.70
2019-05-19T00:45:06.021Z,51.33
2019-05-19T00:47:34.531Z,49.70
2019-05-19T00:50:03.616Z,54.90
2019-05-19T00:52:32.209Z,51.45
2019-05-19T00:55:00.779Z,60.10
2019-05-19T00:57:29.711Z,56.65
2019-05-19T00:59:59.422Z,48.35
2019-05-19T01:02:27.907Z,53.25
2019-05-19T01:04:56.645Z,55.55
2019-05-19T01:07:25.191Z,48.55
2019-05-19T01:09:53.773Z,55.95
2019-05-19T01:12:22.346Z,53.25
2019-05-19T01:14:52.465Z,47.15
2019-05-19T01:17:21.083Z,61.00
2019-05-19T01:19:55.912Z,59.18
2019-05-19T01:22:20.133Z,49.85
2019-05-19T01:24:48.727Z,60.30
2019-05-19T01:27:17.216Z,58.87
2019-05-19T01:29:45.860Z,60.67
2019-05-19T01:32:14.446Z,54.53
2019-05-19T01:34:43.058Z,55.15
2019-05-19T01:37:11.642Z,62.33
2019-05-19T01:39:40.130Z,52.03
2019-05-19T01:42:08.692Z,53.17
2019-05-19T01:44:37.236Z,56.37
2019-05-19T01:47:05.770Z,60.73
2019-05-19T01:49:34.277Z,60.25
2019-05-19T01:52:02.846Z,59.42
2019-05-19T01:54:31.342Z,63.42
2019-05-19T01:56:59.823Z,60.83
2019-05-19T01:59:28.350Z,64.22
2019-05-19T02:01:56.850Z,57.30
2019-05-19T02:04:25.474Z,57.78
2019-05-19T02:06:53.972Z,56.95
2019-05-19T02:09:22.529Z,57.98
2019-05-19T02:11:51.068Z,62.30
2019-05-19T02:14:19.649Z,56.95
2019-05-19T02:16:48.224Z,59.45
2019-05-19T02:19:16.778Z,59.27
2019-05-19T02:21:45.370Z,62.35
2019-05-19T02:24:13.925Z,63.00
2019-05-19T02:26:42.434Z,55.83
2019-05-19T02:29:11.021Z,61.30
2019-05-19T02:31:39.510Z,53.08
2019-05-19T02:34:08.145Z,60.90
2019-05-19T02:36:36.727Z,64.35
2019-05-19T02:39:06.584Z,60.55
2019-05-19T02:41:37.406Z,62.20
2019-05-19T02:44:07.318Z,63.73
2019-05-19T02:46:56.759Z,65.37
2019-05-19T02:49:27.816Z,62.73
2019-05-19T02:51:58.831Z,52.43
2019-05-19T02:54:28.145Z,65.00
2019-05-19T02:56:57.227Z,58.17
2019-05-19T02:59:26.238Z,61.90
2019-05-19T03:02:02.430Z,66.90
2019-05-19T03:04:31.312Z,70.15
2019-05-19T03:06:59.972Z,66.85
2019-05-19T03:09:28.546Z,52.48
2019-05-19T03:11:57.137Z,56.45
2019-05-19T03:14:25.774Z,61.13
2019-05-19T03:16:54.360Z,62.17
2019-05-19T03:19:22.966Z,59.90
2019-05-19T03:21:51.476Z,52.90
2019-05-19T03:24:20.046Z,56.83
2019-05-19T03:26:49.428Z,63.08
2019-05-19T03:29:19.582Z,63.50
2019-05-19T03:31:52.478Z,53.60
2019-05-19T03:34:21.022Z,53.50
2019-05-19T03:36:49.657Z,61.63
2019-05-19T03:39:18.217Z,57.13
2019-05-19T03:41:46.691Z,61.35
2019-05-19T03:44:15.197Z,63.48
2019-05-19T03:46:43.749Z,51.25
2019-05-19T03:49:12.267Z,56.60
2019-05-19T03:51:40.789Z,63.50
2019-05-19T03:54:09.366Z,67.62
2019-05-19T03:56:37.881Z,66.07
2019-05-19T03:59:06.380Z,53.65
2019-05-19T04:01:34.867Z,62.27
2019-05-19T04:04:03.380Z,54.38
2019-05-19T04:06:31.913Z,63.83
2019-05-19T04:09:00.398Z,59.03
2019-05-19T04:11:28.914Z,66.55
2019-05-19T04:13:57.394Z,63.40
2019-05-19T04:16:28.096Z,61.13
2019-05-19T04:18:56.677Z,63.60
2019-05-19T04:21:25.240Z,59.48
2019-05-19T04:23:53.817Z,65.08
2019-05-19T04:26:22.431Z,54.98
2019-05-19T04:28:50.928Z,68.00
2019-05-19T04:31:19.414Z,68.83
2019-05-19T04:33:47.996Z,69.12
2019-05-19T04:36:16.616Z,57.17
2019-05-19T04:38:45.172Z,62.30
2019-05-19T04:41:13.719Z,47.15
2019-05-19T04:43:42.353Z,54.03
2019-05-19T04:46:10.893Z,64.70
2019-05-19T04:48:40.195Z,66.90
2019-05-19T04:51:08.754Z,65.17
2019-05-19T04:53:37.364Z,67.90
2019-05-19T04:56:05.923Z,65.90
2019-05-19T04:58:34.438Z,48.63
2019-05-19T05:01:03.597Z,54.80
2019-05-19T05:03:32.227Z,34.78
2019-05-19T05:06:00.747Z,57.03
2019-05-19T05:08:30.789Z,70.12
2019-05-19T05:10:59.655Z,65.35
2019-05-19T05:13:47.611Z,58.08
2019-05-19T05:16:16.153Z,47.23
2019-05-19T05:18:47.693Z,45.95
2019-05-19T05:21:14.883Z,58.45
2019-05-19T05:23:43.403Z,55.08
2019-05-19T05:26:11.881Z,47.25
2019-05-19T05:28:40.446Z,61.23
2019-05-19T05:31:08.999Z,51.07
2019-05-19T05:33:37.503Z,52.60
2019-05-19T05:36:06.057Z,41.53
2019-05-19T05:38:34.592Z,69.10
2019-05-19T05:41:03.074Z,69.32
2019-05-19T05:43:31.638Z,35.20
2019-05-19T05:46:00.222Z,63.10
2019-05-19T05:48:28.778Z,54.93
2019-05-19T05:50:57.447Z,68.67
2019-05-19T05:53:26.010Z,49.60
2019-05-19T05:55:54.541Z,46.90
2019-05-19T05:58:23.244Z,64.97
2019-05-19T06:00:51.837Z,40.30
2019-05-19T06:03:20.408Z,51.90
2019-05-19T06:05:49.093Z,50.92
2019-05-19T06:08:17.651Z,59.73
2019-05-19T06:10:46.171Z,62.43
2019-05-19T06:13:14.745Z,45.53
2019-05-19T06:15:43.323Z,64.00
2019-05-19T06:18:11.917Z,44.85
2019-05-19T06:20:40.403Z,39.95
2019-05-19T06:23:08.912Z,62.30
2019-05-19T06:25:37.529Z,65.28
2019-05-19T06:28:06.129Z,59.05
2019-05-19T06:30:34.719Z,50.30
2019-05-19T06:33:03.996Z,60.43
2019-05-19T06:35:32.537Z,51.30
2019-05-19T06:38:01.086Z,68.47
2019-05-19T06:40:29.594Z,68.28
2019-05-19T06:42:58.129Z,68.57
2019-05-19T06:45:26.786Z,44.42
2019-05-19T06:47:55.359Z,73.17
2019-05-19T06:50:23.907Z,62.73
2019-05-19T06:52:52.539Z,72.50
2019-05-19T06:55:21.160Z,63.57
2019-05-19T06:57:49.753Z,61.02
2019-05-19T07:00:18.710Z,56.33
2019-05-19T07:02:47.206Z,64.65
2019-05-19T07:05:17.331Z,41.65
2019-05-19T07:07:45.875Z,52.95
2019-05-19T07:10:14.512Z,71.17
2019-05-19T07:12:43.076Z,71.87
2019-05-19T07:15:12.310Z,64.75
2019-05-19T07:17:41.358Z,64.65
2019-05-19T07:20:10.314Z,60.10
2019-05-19T07:22:38.872Z,53.28
2019-05-19T07:25:07.746Z,66.17
2019-05-19T07:27:36.239Z,65.00
2019-05-19T07:30:07.998Z,68.12
2019-05-19T07:32:36.542Z,48.30
2019-05-19T07:35:06.352Z,48.65
2019-05-19T07:37:34.938Z,67.82
2019-05-19T07:40:06.055Z,56.55
2019-05-19T07:42:34.630Z,67.75
2019-05-19T07:45:03.274Z,65.20
2019-05-19T07:47:31.790Z,39.83
2019-05-19T07:50:00.387Z,47.53
2019-05-19T07:52:28.940Z,57.00
2019-05-19T07:54:57.525Z,62.23
2019-05-19T07:57:26.108Z,62.03
2019-05-19T07:59:54.733Z,63.85
2019-05-19T08:02:23.266Z,63.20
2019-05-19T08:04:51.800Z,64.25
2019-05-19T08:07:20.403Z,57.90
2019-05-19T08:09:48.996Z,53.58
2019-05-19T08:12:17.518Z,51.30
2019-05-19T08:14:46.166Z,62.27
2019-05-19T08:17:14.746Z,42.73
2019-05-19T08:19:43.417Z,62.48
2019-05-19T08:22:11.929Z,61.23
2019-05-19T08:24:40.420Z,41.80
2019-05-19T08:27:08.941Z,56.00
2019-05-19T08:29:37.557Z,51.23
2019-05-19T08:32:06.124Z,57.03
2019-05-19T08:34:34.749Z,57.85
2019-05-19T08:37:03.244Z,44.98
2019-05-19T08:39:31.836Z,66.15
2019-05-19T08:42:00.491Z,62.53
2019-05-19T08:44:29.063Z,67.45
2019-05-19T08:46:57.652Z,65.17
2019-05-19T08:49:26.301Z,58.10
2019-05-19T08:51:54.863Z,66.85
2019-05-19T08:54:23.429Z,61.05
2019-05-19T08:56:51.927Z,62.15
2019-05-19T08:59:20.529Z,63.25
2019-05-19T09:01:49.091Z,61.68
2019-05-19T09:04:17.567Z,54.73
2019-05-19T09:06:46.070Z,59.55
2019-05-19T09:09:14.545Z,53.48
2019-05-19T09:11:43.121Z,66.37
2019-05-19T09:14:11.608Z,57.78
2019-05-19T09:16:40.137Z,57.85
2019-05-19T09:19:08.655Z,48.65
2019-05-19T09:21:37.116Z,53.40
2019-05-19T09:24:05.619Z,53.10
2019-05-19T09:26:34.218Z,54.95
2019-05-19T09:29:02.802Z,41.33
2019-05-19T09:31:31.324Z,54.30
2019-05-19T09:33:59.908Z,47.93
2019-05-19T09:36:28.404Z,40.38
2019-05-19T09:38:56.967Z,43.55
2019-05-19T09:41:25.557Z,44.67
2019-05-19T09:43:54.107Z,43.83
2019-05-19T09:46:22.760Z,44.90
2019-05-19T09:48:52.935Z,52.62
2019-05-19T09:51:21.477Z,45.38
2019-05-19T09:53:50.052Z,31.02
2019-05-19T09:56:18.646Z,44.93
2019-05-19T09:58:47.200Z,31.23
2019-05-19T10:01:15.669Z,41.08
2019-05-19T10:03:44.330Z,40.73
2019-05-19T10:06:12.922Z,41.53
2019-05-19T10:09:02.482Z,49.80
2019-05-19T10:11:53.392Z,44.18
2019-05-19T10:14:22.144Z,42.13
2019-05-19T10:16:50.722Z,30.08
2019-05-19T10:19:19.342Z,40.20
2019-05-19T10:21:47.937Z,49.53
2019-05-19T10:24:16.449Z,38.85
2019-05-19T10:26:44.992Z,26.57
2019-05-19T10:29:13.535Z,36.10
2019-05-19T10:31:42.071Z,34.40
2019-05-19T10:34:10.560Z,29.75
2019-05-19T10:36:39.242Z,37.42
2019-05-19T10:39:07.890Z,46.25
2019-05-19T10:41:36.454Z,47.53
2019-05-19T10:44:05.223Z,39.45
2019-05-19T10:46:53.137Z,35.90
2019-05-19T10:49:21.809Z,50.67
2019-05-19T10:51:50.354Z,45.25
2019-05-19T10:54:19.092Z,38.15
2019-05-19T10:56:47.679Z,39.75
2019-05-19T10:59:16.165Z,39.58
2019-05-19T11:01:44.737Z,45.28
2019-05-19T11:04:13.381Z,48.93
2019-05-19T11:06:41.861Z,48.25
2019-05-19T11:09:10.540Z,51.53
2019-05-19T11:11:39.177Z,50.70
2019-05-19T11:14:07.664Z,51.08
2019-05-19T11:16:55.607Z,53.17
2019-05-19T11:19:24.392Z,52.37
2019-05-19T11:21:52.972Z,41.30
2019-05-19T11:24:21.645Z,32.05
2019-05-19T11:26:50.284Z,54.25
2019-05-19T11:29:18.831Z,48.05
2019-05-19T11:31:47.361Z,47.08
2019-05-19T11:34:15.943Z,42.95
2019-05-19T11:36:44.475Z,49.93
2019-05-19T11:39:13.024Z,40.98
2019-05-19T11:41:41.580Z,55.00
2019-05-19T11:44:10.150Z,47.20
2019-05-19T11:46:38.716Z,30.95
2019-05-19T11:49:07.339Z,38.25
2019-05-19T11:51:35.872Z,47.23
2019-05-19T11:54:04.511Z,39.80
2019-05-19T11:56:33.073Z,47.43
2019-05-19T11:59:01.686Z,34.78
2019-05-19T12:01:30.564Z,40.75
2019-05-19T12:03:59.169Z,34.53
2019-05-19T12:06:38.723Z,41.05
2019-05-19T12:08:57.997Z,32.78
2019-05-19T12:11:27.307Z,41.50
2019-05-19T12:13:55.888Z,37.93
2019-05-19T12:16:24.438Z,41.30
2019-05-19T12:18:53.017Z,40.95
2019-05-19T12:21:21.599Z,39.53
2019-05-19T12:23:50.155Z,44.27
2019-05-19T12:26:23.332Z,41.42
2019-05-19T12:28:49.043Z,44.93
2019-05-19T12:31:17.665Z,39.17
2019-05-19T12:33:52.015Z,37.60
2019-05-19T12:36:16.543Z,39.85
2019-05-19T12:38:45.073Z,35.98
2019-05-19T12:41:13.604Z,34.10
2019-05-19T12:43:42.171Z,42.85
2019-05-19T12:46:16.556Z,34.65
2019-05-19T12:48:40.917Z,33.13
2019-05-19T12:51:12.292Z,35.63
2019-05-19T12:53:40.912Z,30.72
2019-05-19T12:56:09.437Z,30.95
2019-05-19T12:58:38.051Z,37.50
2019-05-19T13:01:07.091Z,27.32
2019-05-19T13:03:35.574Z,34.70
2019-05-19T13:06:04.094Z,30.82
2019-05-19T13:08:32.682Z,27.87
2019-05-19T13:11:01.246Z,25.88
2019-05-19T13:13:29.844Z,22.15
2019-05-19T13:15:58.392Z,28.32
2019-05-19T13:18:26.882Z,23.60
2019-05-19T13:20:55.444Z,29.23
2019-05-19T13:23:24.042Z,28.17
2019-05-19T13:25:52.667Z,28.27
2019-05-19T13:28:21.255Z,28.27
2019-05-19T13:30:49.724Z,30.70
2019-05-19T13:33:18.215Z,23.75
2019-05-19T13:35:46.839Z,24.77
2019-05-19T13:38:15.333Z,28.38
2019-05-19T13:40:43.977Z,23.98
2019-05-19T13:43:12.494Z,26.23
2019-05-19T13:45:41.044Z,24.32
2019-05-19T13:48:09.555Z,27.27
2019-05-19T13:50:38.114Z,30.60
2019-05-19T13:53:06.691Z,27.62
2019-05-19T13:55:36.178Z,34.08
2019-05-19T13:58:06.431Z,29.95
2019-05-19T14:00:37.932Z,28.75
2019-05-19T14:03:06.689Z,26.90
2019-05-19T14:05:35.221Z,24.72
2019-05-19T14:08:03.735Z,28.07
2019-05-19T14:10:35.532Z,22.48
2019-05-19T14:13:04.082Z,27.58
2019-05-19T14:15:32.625Z,24.45
2019-05-19T14:18:01.259Z,26.42
2019-05-19T14:20:29.817Z,27.52
2019-05-19T14:23:10.475Z,32.88
2019-05-19T14:25:39.074Z,27.48
2019-05-19T14:28:07.562Z,22.25
2019-05-19T14:30:36.129Z,26.30
2019-05-19T14:33:04.690Z,29.65
2019-05-19T14:35:33.194Z,30.75
2019-05-19T14:38:01.772Z,26.75
2019-05-19T14:40:30.254Z,23.07
2019-05-19T14:43:00.482Z,24.18
2019-05-19T14:45:29.059Z,22.20
2019-05-19T14:48:00.015Z,30.00
2019-05-19T14:50:28.531Z,29.02
2019-05-19T14:52:57.037Z,28.62
2019-05-19T14:55:25.745Z,28.05
2019-05-19T14:57:54.274Z,25.92
2019-05-19T15:00:23.896Z,21.48
2019-05-19T15:02:52.429Z,22.50
2019-05-19T15:05:20.907Z,26.15
2019-05-19T15:07:49.393Z,24.37
2019-05-19T15:10:18.382Z,21.57
2019-05-19T15:12:46.965Z,23.22
2019-05-19T15:15:16.174Z,21.20
2019-05-19T15:17:44.749Z,26.02
2019-05-19T15:20:13.554Z,22.75
2019-05-19T15:22:42.110Z,23.18
2019-05-19T15:25:11.277Z,21.75
2019-05-19T15:27:39.765Z,23.07
2019-05-19T15:30:13.237Z,22.50
2019-05-19T15:32:38.951Z,20.77
2019-05-19T15:35:08.468Z,21.93
2019-05-19T15:37:36.949Z,22.25
2019-05-19T15:40:06.722Z,37.05
2019-05-19T15:42:35.201Z,31.02
2019-05-19T15:45:03.824Z,32.05
2019-05-19T15:47:32.420Z,31.57
2019-05-19T15:50:00.990Z,31.70
2019-05-19T15:52:29.469Z,37.17
2019-05-19T15:54:58.002Z,33.10
2019-05-19T15:57:28.626Z,32.95
2019-05-19T15:59:56.724Z,33.38
2019-05-19T16:02:25.306Z,32.78
2019-05-19T16:04:53.866Z,32.30
2019-05-19T16:07:22.569Z,33.47
2019-05-19T16:09:51.122Z,30.48
2019-05-19T16:12:19.657Z,15.58
2019-05-19T16:14:48.186Z,22.65
2019-05-19T16:17:16.735Z,23.45
2019-05-19T16:19:45.217Z,20.90
2019-05-19T16:22:13.964Z,19.30
2019-05-19T16:24:42.528Z,20.17
2019-05-19T16:27:12.816Z,18.57
2019-05-19T16:29:41.338Z,18.98
2019-05-19T16:32:09.824Z,15.68
2019-05-19T16:34:57.838Z,18.42
2019-05-19T16:37:26.398Z,21.45
2019-05-19T16:39:55.144Z,22.42
2019-05-19T16:42:23.720Z,19.60
2019-05-19T16:44:52.284Z,21.80
2019-05-19T16:47:20.821Z,24.90
2019-05-19T16:49:49.541Z,19.77
2019-05-19T16:52:18.241Z,21.73
2019-05-19T16:55:04.893Z,19.27
2019-05-19T16:57:33.496Z,18.42
2019-05-19T17:00:02.074Z,18.55
2019-05-19T17:02:30.686Z,14.38
2019-05-19T17:04:59.491Z,15.25
2019-05-19T17:07:28.065Z,14.93
2019-05-19T17:09:56.682Z,15.83
2019-05-19T17:12:25.363Z,16.80
2019-05-19T17:14:53.892Z,17.15
2019-05-19T17:17:22.713Z,15.65
2019-05-19T17:19:51.281Z,16.55
2019-05-19T17:22:19.801Z,15.83
2019-05-19T17:24:48.510Z,16.15
2019-05-19T17:27:17.168Z,20.48
2019-05-19T17:29:45.912Z,14.83
2019-05-19T17:32:14.522Z,15.23
2019-05-19T17:34:43.137Z,13.45
2019-05-19T17:37:11.707Z,16.25
2019-05-19T17:39:40.307Z,15.90
2019-05-19T17:42:08.839Z,12.98
2019-05-19T17:44:37.380Z,16.25
2019-05-19T17:47:05.868Z,13.10
2019-05-19T17:49:34.463Z,17.65
2019-05-19T17:52:03.292Z,17.80
2019-05-19T17:54:32.327Z,17.45
2019-05-19T17:57:03.118Z,16.52
2019-05-19T17:59:32.424Z,16.62
2019-05-19T18:02:01.038Z,22.02
2019-05-19T18:04:29.527Z,29.85
2019-05-19T18:06:58.004Z,29.15
2019-05-19T18:09:26.490Z,37.05
2019-05-19T18:11:55.227Z,39.30
2019-05-19T18:14:23.784Z,40.67
2019-05-19T18:16:52.546Z,41.53
2019-05-19T18:19:21.518Z,45.33
2019-05-19T18:21:50.101Z,45.40
2019-05-19T18:24:18.669Z,39.55
2019-05-19T18:26:47.279Z,36.95
2019-05-19T18:29:29.203Z,46.18
2019-05-19T18:31:46.271Z,50.65
2019-05-19T18:34:14.914Z,48.13
2019-05-19T18:36:43.501Z,34.43
2019-05-19T18:39:12.059Z,50.15
2019-05-19T18:41:40.735Z,48.48
2019-05-19T18:44:09.215Z,48.98
2019-05-19T18:46:37.846Z,48.20
2019-05-19T18:49:06.531Z,55.50
2019-05-19T18:51:35.166Z,54.50
2019-05-19T18:54:03.655Z,56.80
2019-05-19T18:56:32.244Z,51.33
2019-05-19T18:59:02.378Z,53.13
2019-05-19T19:01:31.124Z,45.45
2019-05-19T19:03:59.831Z,53.50
2019-05-19T19:06:30.785Z,62.95
2019-05-19T19:08:59.321Z,55.00
2019-05-19T19:11:27.871Z,50.80
2019-05-19T19:13:56.392Z,53.95
2019-05-19T19:16:24.966Z,45.60
2019-05-19T19:18:53.457Z,51.15
2019-05-19T19:21:21.994Z,51.33
2019-05-19T19:23:50.552Z,48.58
2019-05-19T19:26:19.166Z,53.33
2019-05-19T19:28:47.674Z,56.13
2019-05-19T19:31:47.765Z,49.30
2019-05-19T19:34:06.308Z,52.78
2019-05-19T19:36:35.042Z,38.28
2019-05-19T19:39:05.220Z,47.08
2019-05-19T19:41:33.848Z,53.23
2019-05-19T19:44:02.430Z,47.98
2019-05-19T19:46:30.918Z,46.98
2019-05-19T19:48:59.509Z,38.40
2019-05-19T19:51:28.121Z,38.05
2019-05-19T19:53:56.670Z,46.68
2019-05-19T19:56:25.236Z,39.60
2019-05-19T19:58:53.810Z,42.05
2019-05-19T20:01:22.362Z,53.30
2019-05-19T20:03:50.877Z,53.55
2019-05-19T20:06:19.438Z,50.73
2019-05-19T20:08:47.930Z,53.50
2019-05-19T20:11:16.443Z,46.70
2019-05-19T20:13:45.021Z,46.50
2019-05-19T20:16:13.648Z,50.08
2019-05-19T20:18:42.339Z,45.35
2019-05-19T20:21:15.130Z,49.98
2019-05-19T20:23:43.666Z,53.55
2019-05-19T20:26:12.271Z,53.33
2019-05-19T20:28:40.752Z,49.42
2019-05-19T20:31:09.918Z,46.56
2019-05-19T20:33:38.542Z,44.10
2019-05-19T20:36:07.226Z,50.73
2019-05-19T20:38:35.702Z,37.00
2019-05-19T20:41:04.375Z,55.38
2019-05-19T20:43:33.002Z,41.35
2019-05-19T20:46:01.486Z,40.45
2019-05-19T20:48:32.668Z,46.00
2019-05-19T20:51:00.521Z,45.00
2019-05-19T20:53:29.014Z,49.42
2019-05-19T20:55:57.655Z,38.38
2019-05-19T20:58:26.277Z,49.80
2019-05-19T21:00:54.753Z,38.05
2019-05-19T21:03:23.232Z,52.03
2019-05-19T21:05:51.750Z,39.75
2019-05-19T21:08:20.307Z,50.70
2019-05-19T21:10:48.778Z,46.20
2019-05-19T21:13:17.284Z,40.10
2019-05-19T21:15:45.914Z,43.13
2019-05-19T21:18:14.381Z,40.95
2019-05-19T21:20:42.980Z,42.80
2019-05-19T21:23:11.610Z,49.70
2019-05-19T21:25:40.087Z,43.52
2019-05-19T21:28:08.594Z,50.63
2019-05-19T21:30:37.066Z,53.98
2019-05-19T21:33:05.538Z,53.60
2019-05-19T21:35:34.354Z,52.03
2019-05-19T21:38:02.952Z,54.42
2019-05-19T21:40:31.513Z,52.30
2019-05-19T21:43:00.013Z,56.45
2019-05-19T21:45:28.515Z,55.85
2019-05-19T21:47:57.055Z,52.95
2019-05-19T21:50:25.574Z,55.45
2019-05-19T21:52:54.049Z,50.78
2019-05-19T21:55:22.536Z,57.98
2019-05-19T21:57:51.107Z,54.85
2019-05-19T22:00:21.946Z,55.30
2019-05-19T22:02:50.498Z,50.63
2019-05-19T22:05:19.132Z,52.35
2019-05-19T22:07:51.829Z,56.00
2019-05-19T22:10:20.384Z,53.70
2019-05-19T22:12:48.938Z,54.98
2019-05-19T22:15:17.451Z,59.25
2019-05-19T22:17:45.923Z,55.58
2019-05-19T22:20:16.021Z,51.00
2019-05-19T22:22:44.585Z,53.80
2019-05-19T22:25:13.323Z,52.93
2019-05-19T22:27:41.862Z,57.13
2019-05-19T22:30:10.564Z,52.03
2019-05-19T22:32:39.174Z,55.50
2019-05-19T22:35:09.574Z,57.38
2019-05-19T22:37:38.099Z,52.23
2019-05-19T22:40:07.201Z,48.68
2019-05-19T22:42:35.818Z,55.67
2019-05-19T22:45:06.407Z,56.53
2019-05-19T22:47:34.984Z,58.02
2019-05-19T22:50:05.663Z,57.13
2019-05-19T22:52:34.143Z,41.35
2019-05-19T22:55:02.990Z,60.25
2019-05-19T22:57:31.490Z,52.48
2019-05-19T23:00:00.098Z,49.38
2019-05-19T23:02:28.633Z,56.33
2019-05-19T23:04:57.149Z,48.65
2019-05-19T23:07:25.676Z,55.60
2019-05-19T23:09:54.278Z,48.78
2019-05-19T23:12:22.882Z,42.78
2019-05-19T23:14:51.351Z,57.93
2019-05-19T23:17:19.848Z,53.90
2019-05-19T23:19:48.487Z,50.33
2019-05-19T23:22:16.968Z,50.03
2019-05-19T23:24:45.486Z,48.92
2019-05-19T23:27:14.070Z,52.45
2019-05-19T23:29:42.557Z,48.25
2019-05-19T23:32:11.143Z,51.92
2019-05-19T23:34:39.698Z,50.00
2019-05-19T23:37:08.308Z,44.83
2019-05-19T23:39:36.934Z,51.15
2019-05-19T23:42:05.503Z,40.38
2019-05-19T23:44:34.007Z,40.75
2019-05-19T23:47:02.542Z,41.90
2019-05-19T23:49:31.043Z,44.93
2019-05-19T23:51:59.626Z,46.80
2019-05-19T23:54:28.174Z,44.30
2019-05-19T23:56:56.710Z,43.40
2019-05-19T23:59:25.190Z,43.90
